createdAt,value
2019-03-25T00:00:26.055Z,99.86
2019-03-25T00:01:26.039Z,99.96
2019-03-25T00:02:26.024Z,99.96
2019-03-25T00:03:26.010Z,99.99
2019-03-25T00:04:26.005Z,99.86
2019-03-25T00:05:25.980Z,99.99
2019-03-25T00:06:25.965Z,99.99
2019-03-25T00:07:27.615Z,99.99
2019-03-25T00:08:25.939Z,99.96
2019-03-25T00:10:25.906Z,99.48
2019-03-25T00:11:25.896Z,99.44
2019-03-25T00:13:25.862Z,99.91
2019-03-25T00:15:25.833Z,99.34
2019-03-25T00:16:25.822Z,99.25
2019-03-25T00:18:25.791Z,98.96
2019-03-25T00:20:25.762Z,98.87
2019-03-25T00:21:25.747Z,98.49
2019-03-25T00:22:25.731Z,98.58
2019-03-25T00:23:25.475Z,98.11
2019-03-25T00:24:37.804Z,98.68
2019-03-25T00:25:25.687Z,97.45
2019-03-25T00:26:25.676Z,98.3
2019-03-25T00:27:25.661Z,97.73
2019-03-25T00:28:25.649Z,97.54
2019-03-25T00:29:25.637Z,97.64
2019-03-25T00:30:25.618Z,97.69
2019-03-25T00:31:25.603Z,97.21
2019-03-25T00:32:25.589Z,97.69
2019-03-25T00:33:25.573Z,97.31
2019-03-25T00:34:25.569Z,96.73
2019-03-25T00:35:25.549Z,96.64
2019-03-25T00:36:25.539Z,97.02
2019-03-25T00:37:25.545Z,96.73
2019-03-25T00:38:25.502Z,96.64
2019-03-25T00:39:25.494Z,96.73
2019-03-25T00:40:25.476Z,96.83
2019-03-25T00:41:25.463Z,96.08
2019-03-25T00:42:25.447Z,96.64
2019-03-25T00:43:25.193Z,96.45
2019-03-25T00:44:25.170Z,96.26
2019-03-25T00:45:25.404Z,96.73
2019-03-25T00:46:25.392Z,95.88
2019-03-25T00:47:25.376Z,96.45
2019-03-25T00:48:25.362Z,96.08
2019-03-25T00:49:25.381Z,96.17
2019-03-25T00:50:25.341Z,95.98
2019-03-25T00:51:25.324Z,96.26
2019-03-25T00:52:25.306Z,96.26
2019-03-25T00:53:25.295Z,96.17
2019-03-25T00:54:25.284Z,95.5
2019-03-25T00:55:25.266Z,95.69
2019-03-25T00:56:25.251Z,95.6
2019-03-25T00:57:25.238Z,95.79
2019-03-25T00:58:25.223Z,95.69
2019-03-25T00:59:25.263Z,95.93
2019-03-25T01:00:25.196Z,95.45
2019-03-25T01:01:25.185Z,95.74
2019-03-25T01:02:25.166Z,95.84
2019-03-25T01:03:25.156Z,95.93
2019-03-25T01:04:25.144Z,95.93
2019-03-25T01:05:25.126Z,96.31
2019-03-25T01:06:25.113Z,96.5
2019-03-25T01:07:25.097Z,96.12
2019-03-25T01:08:25.083Z,96.5
2019-03-25T01:09:25.068Z,96.12
2019-03-25T01:10:25.053Z,96.88
2019-03-25T01:11:25.040Z,96.78
2019-03-25T01:12:25.030Z,96.69
2019-03-25T01:13:25.028Z,96.41
2019-03-25T01:14:25.000Z,97.16
2019-03-25T01:15:24.985Z,97.16
2019-03-25T01:16:24.970Z,97.26
2019-03-25T01:17:24.954Z,97.54
2019-03-25T01:18:24.939Z,97.54
2019-03-25T01:19:24.927Z,97.35
2019-03-25T01:20:25.041Z,97.45
2019-03-25T01:21:24.954Z,97.35
2019-03-25T01:22:24.883Z,97.16
2019-03-25T01:23:24.871Z,97.45
2019-03-25T01:24:24.853Z,97.73
2019-03-25T01:25:24.841Z,97.73
2019-03-25T01:26:24.825Z,97.83
2019-03-25T01:27:24.814Z,98.11
2019-03-25T01:28:24.796Z,98.11
2019-03-25T01:29:24.783Z,97.83
2019-03-25T01:30:24.769Z,97.83
2019-03-25T01:31:24.757Z,97.83
2019-03-25T01:32:24.741Z,98.11
2019-03-25T01:33:24.725Z,98.02
2019-03-25T01:34:24.710Z,97.92
2019-03-25T01:35:24.694Z,97.64
2019-03-25T01:36:24.681Z,97.64
2019-03-25T01:37:24.669Z,97.16
2019-03-25T01:38:24.652Z,97.35
2019-03-25T01:39:24.637Z,97.26
2019-03-25T01:40:24.629Z,97.45
2019-03-25T01:41:24.367Z,96.92
2019-03-25T01:42:24.598Z,96.69
2019-03-25T01:43:24.590Z,96.83
2019-03-25T01:44:24.573Z,96.17
2019-03-25T01:45:24.556Z,96.08
2019-03-25T01:46:24.542Z,96.55
2019-03-25T01:47:24.525Z,96.73
2019-03-25T01:48:24.511Z,96.83
2019-03-25T01:49:24.496Z,96.92
2019-03-25T01:50:24.486Z,96.17
2019-03-25T01:51:24.474Z,96.08
2019-03-25T01:52:24.454Z,96.08
2019-03-25T01:53:24.439Z,96.36
2019-03-25T01:54:24.431Z,96.92
2019-03-25T01:55:24.412Z,95.88
2019-03-25T01:56:24.404Z,96.26
2019-03-25T01:57:24.385Z,96.36
2019-03-25T01:58:24.373Z,96.17
2019-03-25T01:59:24.373Z,96.36
2019-03-25T02:00:24.343Z,95.88
2019-03-25T02:01:24.327Z,95.6
2019-03-25T02:02:24.348Z,95.6
2019-03-25T02:03:25.019Z,95.79
2019-03-25T02:04:24.287Z,95.6
2019-03-25T02:05:24.276Z,95.41
2019-03-25T02:06:24.259Z,95.6
2019-03-25T02:07:24.266Z,95.41
2019-03-25T02:08:24.289Z,95.41
2019-03-25T02:09:24.217Z,95.5
2019-03-25T02:10:24.205Z,95.22
2019-03-25T02:11:24.871Z,95.03
2019-03-25T02:12:24.176Z,95.22
2019-03-25T02:13:24.161Z,95.03
2019-03-25T02:14:24.147Z,94.84
2019-03-25T02:15:24.132Z,94.74
2019-03-25T02:16:24.119Z,95.03
2019-03-25T02:17:24.105Z,94.74
2019-03-25T02:18:24.091Z,95.22
2019-03-25T02:19:24.079Z,94.74
2019-03-25T02:20:29.244Z,94.93
2019-03-25T02:21:24.052Z,94.74
2019-03-25T02:22:24.050Z,94.84
2019-03-25T02:23:24.023Z,95.22
2019-03-25T02:24:24.008Z,95.12
2019-03-25T02:25:28.062Z,95.22
2019-03-25T02:26:23.985Z,95.22
2019-03-25T02:27:23.966Z,95.12
2019-03-25T02:28:23.956Z,94.65
2019-03-25T02:29:24.004Z,94.46
2019-03-25T02:30:23.680Z,94.56
2019-03-25T02:31:23.915Z,94.27
2019-03-25T02:32:23.913Z,94.27
2019-03-25T02:33:23.883Z,94.18
2019-03-25T02:34:23.879Z,94.46
2019-03-25T02:35:23.858Z,94.37
2019-03-25T02:36:23.842Z,94.27
2019-03-25T02:37:23.837Z,94.65
2019-03-25T02:38:23.820Z,94.08
2019-03-25T02:39:23.807Z,94.27
2019-03-25T02:40:23.806Z,94.37
2019-03-25T02:41:23.784Z,94.56
2019-03-25T02:42:23.762Z,93.99
2019-03-25T02:43:23.747Z,93.99
2019-03-25T02:44:23.752Z,93.8
2019-03-25T02:45:23.735Z,93.8
2019-03-25T02:46:23.713Z,93.51
2019-03-25T02:47:23.696Z,93.7
2019-03-25T02:48:23.699Z,93.8
2019-03-25T02:49:23.684Z,93.99
2019-03-25T02:50:23.653Z,93.18
2019-03-25T02:51:23.679Z,93.27
2019-03-25T02:52:23.630Z,92.99
2019-03-25T02:53:23.626Z,93.27
2019-03-25T02:54:23.596Z,93.41
2019-03-25T02:55:23.350Z,93.46
2019-03-25T02:56:23.587Z,92.94
2019-03-25T02:57:23.556Z,92.85
2019-03-25T02:58:23.626Z,93.41
2019-03-25T02:59:23.543Z,93.23
2019-03-25T03:00:23.517Z,93.32
2019-03-25T03:01:23.504Z,92.94
2019-03-25T03:02:23.516Z,92.85
2019-03-25T03:03:23.484Z,93.13
2019-03-25T03:04:23.590Z,92.76
2019-03-25T03:05:23.469Z,92.76
2019-03-25T03:06:23.434Z,93.04
2019-03-25T03:07:23.422Z,92.76
2019-03-25T03:08:23.420Z,93.04
2019-03-25T03:09:23.408Z,93.41
2019-03-25T03:10:23.376Z,93.41
2019-03-25T03:11:23.367Z,93.7
2019-03-25T03:12:23.358Z,93.51
2019-03-25T03:13:23.337Z,93.8
2019-03-25T03:14:23.344Z,93.51
2019-03-25T03:15:23.307Z,93.99
2019-03-25T03:16:23.305Z,94.08
2019-03-25T03:17:23.291Z,93.89
2019-03-25T03:18:23.316Z,94.08
2019-03-25T03:19:23.289Z,94.37
2019-03-25T03:20:23.239Z,94.37
2019-03-25T03:21:23.255Z,93.99
2019-03-25T03:22:23.213Z,94.37
2019-03-25T03:23:23.223Z,94.56
2019-03-25T03:24:23.186Z,94.27
2019-03-25T03:25:23.184Z,94.56
2019-03-25T03:26:23.161Z,95.22
2019-03-25T03:27:23.146Z,95.03
2019-03-25T03:28:23.136Z,95.03
2019-03-25T03:29:23.112Z,95.12
2019-03-25T03:30:22.921Z,94.93
2019-03-25T03:31:23.117Z,95.12
2019-03-25T03:32:23.100Z,95.12
2019-03-25T03:33:23.095Z,94.46
2019-03-25T03:34:23.078Z,94.37
2019-03-25T03:35:23.044Z,93.99
2019-03-25T03:36:23.015Z,94.56
2019-03-25T03:37:23.012Z,94.08
2019-03-25T03:38:22.995Z,94.08
2019-03-25T03:39:22.976Z,94.37
2019-03-25T03:40:22.712Z,93.99
2019-03-25T03:41:22.953Z,93.8
2019-03-25T03:42:22.933Z,93.8
2019-03-25T03:43:22.926Z,93.61
2019-03-25T03:44:22.907Z,93.8
2019-03-25T03:45:22.891Z,93.7
2019-03-25T03:46:22.894Z,93.7
2019-03-25T03:47:22.871Z,93.8
2019-03-25T03:48:22.603Z,93.99
2019-03-25T03:49:22.839Z,93.61
2019-03-25T03:50:22.818Z,93.32
2019-03-25T03:51:22.809Z,93.99
2019-03-25T03:52:22.794Z,93.04
2019-03-25T03:53:22.795Z,93.04
2019-03-25T03:54:22.770Z,93.32
2019-03-25T03:55:22.513Z,93.04
2019-03-25T03:56:22.739Z,93.41
2019-03-25T03:57:22.729Z,93.32
2019-03-25T03:58:22.712Z,92.76
2019-03-25T03:59:22.702Z,92.85
2019-03-25T04:00:22.692Z,92.85
2019-03-25T04:01:22.669Z,92.85
2019-03-25T04:02:22.653Z,92.94
2019-03-25T04:03:22.638Z,92.94
2019-03-25T04:04:22.632Z,93.41
2019-03-25T04:05:22.609Z,93.13
2019-03-25T04:06:22.599Z,93.32
2019-03-25T04:07:22.589Z,93.41
2019-03-25T04:08:22.567Z,93.8
2019-03-25T04:09:22.567Z,94.08
2019-03-25T04:10:22.548Z,94.08
2019-03-25T04:11:22.531Z,93.51
2019-03-25T04:12:22.525Z,93.99
2019-03-25T04:13:22.502Z,93.8
2019-03-25T04:14:22.486Z,93.7
2019-03-25T04:15:22.473Z,93.7
2019-03-25T04:16:22.458Z,93.7
2019-03-25T04:17:22.447Z,93.61
2019-03-25T04:18:22.435Z,93.89
2019-03-25T04:19:22.417Z,93.8
2019-03-25T04:20:22.403Z,93.99
2019-03-25T04:21:22.392Z,93.89
2019-03-25T04:22:22.379Z,93.89
2019-03-25T04:23:22.373Z,94.18
2019-03-25T04:24:22.350Z,94.46
2019-03-25T04:25:22.331Z,93.99
2019-03-25T04:26:31.172Z,93.7
2019-03-25T04:27:22.302Z,93.99
2019-03-25T04:28:22.291Z,93.7
2019-03-25T04:29:22.279Z,93.8
2019-03-25T04:30:22.346Z,93.51
2019-03-25T04:31:22.246Z,93.7
2019-03-25T04:32:21.999Z,93.61
2019-03-25T04:33:22.223Z,94.08
2019-03-25T04:34:22.201Z,93.8
2019-03-25T04:35:22.196Z,93.7
2019-03-25T04:36:22.176Z,93.8
2019-03-25T04:37:22.162Z,93.61
2019-03-25T04:38:22.159Z,93.51
2019-03-25T04:39:22.136Z,93.41
2019-03-25T04:40:22.133Z,93.89
2019-03-25T04:41:22.108Z,93.75
2019-03-25T04:42:22.098Z,94.32
2019-03-25T04:43:22.085Z,94.51
2019-03-25T04:44:22.064Z,94.13
2019-03-25T04:45:22.049Z,94.42
2019-03-25T04:46:22.089Z,94.89
2019-03-25T04:47:22.024Z,94.79
2019-03-25T04:48:22.007Z,94.98
2019-03-25T04:49:21.990Z,95.55
2019-03-25T04:50:21.976Z,95.55
2019-03-25T04:51:21.962Z,95.07
2019-03-25T04:52:21.948Z,95.65
2019-03-25T04:53:21.934Z,95.74
2019-03-25T04:54:21.919Z,95.65
2019-03-25T04:55:21.907Z,95.55
2019-03-25T04:56:21.923Z,95.65
2019-03-25T04:57:21.876Z,96.03
2019-03-25T04:58:21.863Z,95.93
2019-03-25T04:59:21.849Z,96.22
2019-03-25T05:00:21.835Z,96.31
2019-03-25T05:01:21.824Z,96.12
2019-03-25T05:02:21.811Z,96.22
2019-03-25T05:03:21.793Z,96.03
2019-03-25T05:04:21.781Z,95.93
2019-03-25T05:05:21.764Z,96.22
2019-03-25T05:06:21.752Z,96.03
2019-03-25T05:07:21.735Z,96.12
2019-03-25T05:08:21.721Z,95.93
2019-03-25T05:09:21.712Z,96.12
2019-03-25T05:10:21.446Z,96.03
2019-03-25T05:11:32.619Z,96.88
2019-03-25T05:12:21.664Z,96.22
2019-03-25T05:13:21.653Z,96.03
2019-03-25T05:14:21.637Z,96.31
2019-03-25T05:15:21.627Z,96.88
2019-03-25T05:16:21.610Z,96.73
2019-03-25T05:17:21.592Z,97.21
2019-03-25T05:18:21.589Z,96.64
2019-03-25T05:19:21.586Z,96.83
2019-03-25T05:20:21.551Z,96.45
2019-03-25T05:21:21.535Z,96.26
2019-03-25T05:22:21.528Z,95.6
2019-03-25T05:23:21.511Z,95.22
2019-03-25T05:24:21.496Z,95.41
2019-03-25T05:25:21.481Z,95.22
2019-03-25T05:26:21.477Z,94.79
2019-03-25T05:27:21.452Z,95.17
2019-03-25T05:28:21.438Z,94.13
2019-03-25T05:29:21.426Z,94.42
2019-03-25T05:30:22.965Z,94.32
2019-03-25T05:31:21.400Z,93.84
2019-03-25T05:32:21.384Z,93.84
2019-03-25T05:33:21.368Z,93.27
2019-03-25T05:34:21.356Z,92.99
2019-03-25T05:35:21.343Z,92.99
2019-03-25T05:36:21.332Z,92.42
2019-03-25T05:37:21.316Z,92.37
2019-03-25T05:38:21.304Z,92.18
2019-03-25T05:39:21.289Z,92.09
2019-03-25T05:40:21.276Z,91.89
2019-03-25T05:41:21.266Z,92.09
2019-03-25T05:42:21.252Z,91.52
2019-03-25T05:43:23.479Z,91.71
2019-03-25T05:44:21.224Z,91.04
2019-03-25T05:45:21.218Z,91.04
2019-03-25T05:46:21.196Z,90.57
2019-03-25T05:47:21.185Z,90.76
2019-03-25T05:48:21.169Z,90.57
2019-03-25T05:49:21.164Z,90.76
2019-03-25T05:50:21.144Z,91.24
2019-03-25T05:51:21.132Z,91.04
2019-03-25T05:52:21.117Z,91.04
2019-03-25T05:53:21.105Z,90.95
2019-03-25T05:54:21.093Z,91.24
2019-03-25T05:55:21.084Z,90.95
2019-03-25T05:56:21.070Z,91.14
2019-03-25T05:57:21.052Z,91.04
2019-03-25T05:58:21.048Z,91.04
2019-03-25T05:59:21.027Z,91.04
2019-03-25T06:00:21.014Z,90.47
2019-03-25T06:01:21.004Z,90.85
2019-03-25T06:02:20.990Z,90.71
2019-03-25T06:03:21.026Z,90.71
2019-03-25T06:04:20.963Z,91.09
2019-03-25T06:05:20.949Z,90.42
2019-03-25T06:06:20.937Z,90.23
2019-03-25T06:07:20.926Z,89.86
2019-03-25T06:08:20.914Z,90.05
2019-03-25T06:09:20.909Z,90.14
2019-03-25T06:10:20.888Z,89.76
2019-03-25T06:11:20.875Z,89.86
2019-03-25T06:12:20.864Z,90.42
2019-03-25T06:13:20.851Z,90.8
2019-03-25T06:14:20.843Z,90.52
2019-03-25T06:15:20.826Z,90.71
2019-03-25T06:17:20.799Z,90.52
2019-03-25T06:18:22.947Z,91.09
2019-03-25T06:21:20.755Z,92.23
2019-03-25T06:24:20.715Z,93.27
2019-03-25T06:25:20.723Z,92.99
2019-03-25T06:26:20.688Z,93.84
2019-03-25T06:28:20.670Z,93.46
2019-03-25T06:30:20.653Z,93.94
2019-03-25T06:31:20.630Z,94.13
2019-03-25T06:33:20.601Z,96.22
2019-03-25T06:34:20.594Z,97.64
2019-03-25T06:35:20.580Z,97.64
2019-03-25T06:36:20.574Z,97.45
2019-03-25T06:37:20.553Z,98.45
2019-03-25T06:38:20.542Z,98.54
2019-03-25T06:39:20.528Z,99.4
2019-03-25T06:40:20.517Z,99.99
2019-03-25T06:41:20.503Z,99.99
2019-03-25T06:42:20.245Z,99.99
2019-03-25T06:43:20.477Z,99.99
2019-03-25T06:44:20.469Z,99.99
2019-03-25T06:46:22.211Z,99.99
2019-03-25T06:47:20.180Z,99.99
2019-03-25T06:48:20.449Z,99.99
2019-03-25T06:51:20.375Z,99.99
2019-03-25T06:52:20.360Z,99.99
2019-03-25T06:53:20.349Z,99.99
2019-03-25T06:54:20.338Z,99.99
2019-03-25T06:55:20.324Z,99.99
2019-03-25T06:56:20.306Z,99.99
2019-03-25T06:57:28.132Z,99.99
2019-03-25T06:58:20.282Z,99.99
2019-03-25T06:59:20.267Z,99.99
2019-03-25T07:00:20.254Z,99.99
2019-03-25T07:01:20.240Z,99.99
2019-03-25T07:03:20.212Z,99.99
2019-03-25T07:05:21.449Z,99.99
2019-03-25T07:06:20.174Z,99.99
2019-03-25T07:07:19.909Z,99.99
2019-03-25T07:08:20.145Z,99.99
2019-03-25T07:10:20.117Z,99.99
2019-03-25T07:12:19.840Z,99.99
2019-03-25T07:13:20.076Z,99.99
2019-03-25T07:14:20.062Z,99.99
2019-03-25T07:15:20.055Z,99.99
2019-03-25T07:16:20.041Z,99.99
2019-03-25T07:17:19.771Z,99.99
2019-03-25T07:18:20.015Z,99.99
2019-03-25T07:22:21.165Z,99.99
2019-03-25T07:24:19.927Z,99.99
2019-03-25T07:26:19.897Z,99.99
2019-03-25T07:27:19.905Z,99.99
2019-03-25T07:28:19.873Z,99.99
2019-03-25T07:29:19.867Z,99.99
2019-03-25T07:30:19.845Z,99.99
2019-03-25T07:31:19.830Z,99.99
2019-03-25T07:32:19.820Z,99.99
2019-03-25T07:33:19.800Z,99.99
2019-03-25T07:34:19.788Z,99.99
2019-03-25T07:35:22.233Z,99.99
2019-03-25T07:36:19.763Z,99.99
2019-03-25T07:37:19.744Z,99.99
2019-03-25T07:38:19.734Z,99.99
2019-03-25T07:39:19.717Z,99.99
2019-03-25T07:40:19.757Z,99.99
2019-03-25T07:41:19.688Z,99.99
2019-03-25T07:42:19.702Z,99.99
2019-03-25T07:43:19.660Z,99.99
2019-03-25T07:44:19.649Z,99.99
2019-03-25T07:45:19.631Z,99.99
2019-03-25T07:46:19.619Z,99.99
2019-03-25T07:47:19.603Z,99.99
2019-03-25T07:48:19.588Z,99.99
2019-03-25T07:49:19.578Z,99.99
2019-03-25T07:50:19.561Z,99.99
2019-03-25T07:51:19.546Z,99.99
2019-03-25T07:52:19.539Z,99.99
2019-03-25T07:53:19.541Z,99.99
2019-03-25T07:54:19.539Z,99.99
2019-03-25T07:55:19.499Z,99.99
2019-03-25T07:56:19.492Z,99.99
2019-03-25T07:57:19.512Z,99.99
2019-03-25T07:58:19.452Z,99.99
2019-03-25T07:59:22.451Z,99.99
2019-03-25T08:00:19.462Z,99.99
2019-03-25T08:01:19.417Z,99.99
2019-03-25T08:02:19.393Z,99.99
2019-03-25T08:03:19.405Z,99.99
2019-03-25T08:04:19.400Z,99.99
2019-03-25T08:05:19.379Z,99.99
2019-03-25T08:06:19.374Z,99.99
2019-03-25T08:07:19.347Z,99.99
2019-03-25T08:08:19.340Z,99.99
2019-03-25T08:09:19.300Z,99.99
2019-03-25T08:10:19.292Z,99.99
2019-03-25T08:11:19.297Z,99.99
2019-03-25T08:12:19.341Z,99.99
2019-03-25T08:13:19.407Z,99.99
2019-03-25T08:14:19.263Z,99.99
2019-03-25T08:15:19.219Z,99.99
2019-03-25T08:16:19.251Z,99.99
2019-03-25T08:17:19.198Z,99.99
2019-03-25T08:18:19.180Z,99.99
2019-03-25T08:19:19.171Z,99.99
2019-03-25T08:20:19.153Z,99.99
2019-03-25T08:21:19.145Z,99.99
2019-03-25T08:22:19.130Z,99.99
2019-03-25T08:23:19.117Z,99.99
2019-03-25T08:24:19.159Z,99.99
2019-03-25T08:25:19.092Z,99.99
2019-03-25T08:26:19.085Z,99.99
2019-03-25T08:27:19.071Z,99.99
2019-03-25T08:28:19.051Z,99.99
2019-03-25T08:29:19.038Z,99.99
2019-03-25T08:30:19.041Z,99.99
2019-03-25T08:31:19.012Z,99.99
2019-03-25T08:32:18.999Z,99.99
2019-03-25T08:33:18.988Z,99.99
2019-03-25T08:34:18.979Z,99.99
2019-03-25T08:35:18.988Z,99.99
2019-03-25T08:36:18.948Z,99.99
2019-03-25T08:37:18.937Z,99.99
2019-03-25T08:38:18.930Z,99.99
2019-03-25T08:39:18.913Z,99.99
2019-03-25T08:40:18.901Z,99.99
2019-03-25T08:41:18.887Z,99.99
2019-03-25T08:42:18.872Z,99.99
2019-03-25T08:43:18.864Z,99.99
2019-03-25T08:44:18.851Z,99.99
2019-03-25T08:45:18.837Z,99.99
2019-03-25T08:46:18.825Z,99.99
2019-03-25T08:47:18.811Z,99.99
2019-03-25T08:48:18.800Z,99.99
2019-03-25T08:49:18.788Z,99.99
2019-03-25T08:50:18.781Z,99.99
2019-03-25T08:51:18.763Z,99.99
2019-03-25T08:52:18.753Z,99.99
2019-03-25T08:53:18.739Z,99.99
2019-03-25T08:54:18.727Z,99.99
2019-03-25T08:55:18.726Z,99.99
2019-03-25T08:56:18.709Z,99.99
2019-03-25T08:57:18.693Z,99.99
2019-03-25T08:58:18.686Z,99.99
2019-03-25T08:59:18.674Z,99.99
2019-03-25T09:00:18.658Z,99.99
2019-03-25T09:01:18.645Z,99.99
2019-03-25T09:02:18.636Z,99.99
2019-03-25T09:03:18.626Z,99.99
2019-03-25T09:04:18.642Z,99.99
2019-03-25T09:05:18.602Z,99.99
2019-03-25T09:06:18.587Z,99.99
2019-03-25T09:07:18.587Z,99.99
2019-03-25T09:08:18.324Z,99.99
2019-03-25T09:09:18.559Z,99.99
2019-03-25T09:10:18.543Z,99.99
2019-03-25T09:11:18.529Z,99.99
2019-03-25T09:12:18.517Z,99.99
2019-03-25T09:13:18.506Z,99.99
2019-03-25T09:14:18.496Z,99.78
2019-03-25T09:15:18.480Z,99.97
2019-03-25T09:16:18.471Z,99.99
2019-03-25T09:17:18.459Z,99.99
2019-03-25T09:18:18.447Z,99.99
2019-03-25T09:19:18.439Z,99.99
2019-03-25T09:20:18.461Z,99.99
2019-03-25T09:21:18.411Z,99.99
2019-03-25T09:22:18.405Z,99.99
2019-03-25T09:23:18.388Z,99.99
2019-03-25T09:24:18.387Z,99.99
2019-03-25T09:25:18.365Z,99.99
2019-03-25T09:26:18.106Z,99.99
2019-03-25T09:27:18.386Z,99.99
2019-03-25T09:28:26.638Z,99.99
2019-03-25T09:29:18.322Z,99.99
2019-03-25T09:30:18.308Z,99.99
2019-03-25T09:31:18.300Z,99.84
2019-03-25T09:32:18.288Z,99.55
2019-03-25T09:33:18.275Z,99.84
2019-03-25T09:34:18.265Z,99.5
2019-03-25T09:35:18.251Z,99.36
2019-03-25T09:36:18.244Z,99.41
2019-03-25T09:37:18.256Z,99.02
2019-03-25T09:38:18.222Z,98.27
2019-03-25T09:39:18.211Z,98.46
2019-03-25T09:40:18.196Z,98.74
2019-03-25T09:41:17.947Z,97.79
2019-03-25T09:42:18.178Z,98.08
2019-03-25T09:43:18.163Z,98.17
2019-03-25T09:44:18.156Z,98.36
2019-03-25T09:45:18.149Z,98.22
2019-03-25T09:46:18.135Z,98.41
2019-03-25T09:47:18.126Z,98.03
2019-03-25T09:48:18.121Z,97.74
2019-03-25T09:49:18.102Z,96.7
2019-03-25T09:50:18.091Z,96.03
2019-03-25T09:51:18.085Z,96.08
2019-03-25T09:53:18.060Z,94.08
2019-03-25T09:54:18.053Z,93.7
2019-03-25T09:56:18.033Z,92.55
2019-03-25T09:57:19.515Z,93.03
2019-03-25T09:58:18.017Z,94.03
2019-03-25T09:59:18.003Z,93.93
2019-03-25T10:00:17.999Z,94.32
2019-03-25T10:01:17.990Z,93.27
2019-03-25T10:02:17.986Z,94.22
2019-03-25T10:03:17.966Z,92.74
2019-03-25T10:04:20.023Z,93.12
2019-03-25T10:05:17.948Z,92.08
2019-03-25T10:06:17.720Z,92.65
2019-03-25T10:07:17.930Z,92.84
2019-03-25T10:08:17.921Z,91.41
2019-03-25T10:09:17.914Z,90.59
2019-03-25T10:10:17.922Z,90.79
2019-03-25T10:11:17.900Z,89.83
2019-03-25T10:12:17.887Z,86.3
2019-03-25T10:13:17.884Z,87.45
2019-03-25T10:14:17.875Z,88.88
2019-03-25T10:15:17.861Z,87.35
2019-03-25T10:16:17.856Z,88.98
2019-03-25T10:17:17.846Z,90.31
2019-03-25T10:18:17.838Z,88.12
2019-03-25T10:19:17.849Z,88.59
2019-03-25T10:20:17.822Z,88.92
2019-03-25T10:21:17.814Z,88.26
2019-03-25T10:22:17.809Z,88.35
2019-03-25T10:23:17.800Z,87.21
2019-03-25T10:24:17.961Z,85.82
2019-03-25T10:25:17.788Z,85.82
2019-03-25T10:26:17.778Z,83.43
2019-03-25T10:27:17.792Z,83.81
2019-03-25T10:28:17.761Z,86.2
2019-03-25T10:29:17.755Z,85.15
2019-03-25T10:30:17.748Z,83.62
2019-03-25T10:32:17.731Z,85.49
2019-03-25T10:33:17.476Z,87.3
2019-03-25T10:34:17.719Z,85.54
2019-03-25T10:35:17.711Z,87.26
2019-03-25T10:36:17.704Z,91.17
2019-03-25T10:37:17.695Z,92.5
2019-03-25T10:38:22.260Z,93.55
2019-03-25T10:39:17.694Z,93.93
2019-03-25T10:40:17.676Z,94.51
2019-03-25T10:41:17.663Z,94.6
2019-03-25T10:42:17.656Z,93.93
2019-03-25T10:43:17.651Z,93.6
2019-03-25T10:44:17.641Z,92.17
2019-03-25T10:45:17.638Z,91.31
2019-03-25T10:46:17.687Z,91.12
2019-03-25T10:47:17.618Z,91.07
2019-03-25T10:48:17.613Z,89.45
2019-03-25T10:49:18.851Z,82.76
2019-03-25T10:50:17.599Z,81.9
2019-03-25T10:51:17.590Z,82.09
2019-03-25T10:52:17.583Z,83.67
2019-03-25T10:53:17.607Z,83.29
2019-03-25T10:54:17.645Z,85.11
2019-03-25T10:55:17.569Z,86.25
2019-03-25T10:56:17.304Z,87.26
2019-03-25T10:57:17.544Z,87.54
2019-03-25T10:58:17.536Z,89.36
2019-03-25T10:59:17.529Z,90.84
2019-03-25T11:00:17.527Z,91.31
2019-03-25T11:01:17.521Z,92.08
2019-03-25T11:02:17.505Z,92.65
2019-03-25T11:03:17.497Z,92.17
2019-03-25T11:04:17.491Z,91.27
2019-03-25T11:05:17.480Z,92.41
2019-03-25T11:06:17.515Z,92.98
2019-03-25T11:07:17.589Z,92.69
2019-03-25T11:08:17.466Z,92.36
2019-03-25T11:09:17.451Z,89.69
2019-03-25T11:10:17.443Z,87.92
2019-03-25T11:11:17.436Z,85.91
2019-03-25T11:12:17.430Z,84.77
2019-03-25T11:13:17.423Z,85.91
2019-03-25T11:14:17.414Z,86.68
2019-03-25T11:15:17.405Z,86.2
2019-03-25T11:16:17.403Z,84.86
2019-03-25T11:17:17.391Z,85.34
2019-03-25T11:18:17.384Z,85.25
2019-03-25T11:19:17.374Z,83.53
2019-03-25T11:20:17.368Z,83.14
2019-03-25T11:21:17.362Z,80.04
2019-03-25T11:22:17.355Z,80.32
2019-03-25T11:23:17.348Z,82.48
2019-03-25T11:24:17.671Z,84.58
2019-03-25T11:25:17.335Z,82.95
2019-03-25T11:26:17.328Z,83.86
2019-03-25T11:27:17.320Z,84.52
2019-03-25T11:28:17.312Z,84.72
2019-03-25T11:29:17.308Z,84.05
2019-03-25T11:30:17.302Z,82.61
2019-03-25T11:31:17.292Z,82.61
2019-03-25T11:32:17.289Z,83.57
2019-03-25T11:33:17.283Z,82.75
2019-03-25T11:34:17.274Z,84.19
2019-03-25T11:35:17.276Z,83.13
2019-03-25T11:36:17.264Z,81.13
2019-03-25T11:37:17.254Z,81.13
2019-03-25T11:38:17.247Z,82.18
2019-03-25T11:39:17.244Z,82.79
2019-03-25T11:40:17.237Z,81.07
2019-03-25T11:41:17.230Z,81.74
2019-03-25T11:42:17.223Z,81.45
2019-03-25T11:43:17.217Z,82.31
2019-03-25T11:44:17.211Z,80.3
2019-03-25T11:45:17.208Z,80.3
2019-03-25T11:46:17.201Z,81.36
2019-03-25T11:47:17.195Z,81.07
2019-03-25T11:48:17.188Z,81.45
2019-03-25T11:49:17.181Z,83.75
2019-03-25T11:50:17.174Z,85.85
2019-03-25T11:51:17.173Z,84.8
2019-03-25T11:52:17.164Z,85.94
2019-03-25T11:53:17.161Z,83.75
2019-03-25T11:54:17.152Z,84.56
2019-03-25T11:55:17.844Z,83.7
2019-03-25T11:56:17.139Z,86
2019-03-25T11:57:17.132Z,83.61
2019-03-25T11:58:17.127Z,84.19
2019-03-25T11:59:21.313Z,86.67
2019-03-25T12:00:17.117Z,87.39
2019-03-25T12:01:16.861Z,87.68
2019-03-25T12:02:20.279Z,87.29
2019-03-25T12:03:17.097Z,83.57
2019-03-25T12:04:17.088Z,86.39
2019-03-25T12:05:17.084Z,86.3
2019-03-25T12:06:17.076Z,88.68
2019-03-25T12:07:17.068Z,89.64
2019-03-25T12:08:17.071Z,91.41
2019-03-25T12:09:17.056Z,92.55
2019-03-25T12:10:17.049Z,91.27
2019-03-25T12:11:17.041Z,92.6
2019-03-25T12:12:17.033Z,95.17
2019-03-25T12:13:17.028Z,95.79
2019-03-25T12:14:17.019Z,94.56
2019-03-25T12:15:17.013Z,95.61
2019-03-25T12:16:17.004Z,94.93
2019-03-25T12:17:16.998Z,94.56
2019-03-25T12:18:17.005Z,95.7
2019-03-25T12:19:16.982Z,96.27
2019-03-25T12:20:16.972Z,94.27
2019-03-25T12:21:16.964Z,92.13
2019-03-25T12:22:16.956Z,91.08
2019-03-25T12:23:25.896Z,91.27
2019-03-25T12:24:16.940Z,91.94
2019-03-25T12:25:16.930Z,91.74
2019-03-25T12:26:16.921Z,94.03
2019-03-25T12:27:16.957Z,92.22
2019-03-25T12:28:16.927Z,91.65
2019-03-25T12:29:16.895Z,92.13
2019-03-25T12:30:16.889Z,91.74
2019-03-25T12:31:16.877Z,91.17
2019-03-25T12:32:16.871Z,89.75
2019-03-25T12:33:16.860Z,88.89
2019-03-25T12:34:17.032Z,88.79
2019-03-25T12:35:16.849Z,87.93
2019-03-25T12:36:16.837Z,89.46
2019-03-25T12:37:16.823Z,89.84
2019-03-25T12:38:16.815Z,90.36
2019-03-25T12:39:16.805Z,90.64
2019-03-25T12:40:16.796Z,89.79
2019-03-25T12:41:16.787Z,89.5
2019-03-25T12:42:16.782Z,89.5
2019-03-25T12:43:16.769Z,90.59
2019-03-25T12:44:16.760Z,90.79
2019-03-25T12:45:16.750Z,89.17
2019-03-25T12:46:16.748Z,88.78
2019-03-25T12:47:16.733Z,90.03
2019-03-25T12:48:16.725Z,89.59
2019-03-25T12:49:16.718Z,87.4
2019-03-25T12:50:16.716Z,87.3
2019-03-25T12:51:16.698Z,88.26
2019-03-25T12:52:16.693Z,88.4
2019-03-25T12:53:16.684Z,88.4
2019-03-25T12:54:16.676Z,87.44
2019-03-25T12:55:16.667Z,85.53
2019-03-25T12:56:16.673Z,82.09
2019-03-25T12:57:16.657Z,82.86
2019-03-25T12:58:16.642Z,83.91
2019-03-25T12:59:16.637Z,83.24
2019-03-25T13:00:16.630Z,85.11
2019-03-25T13:01:16.621Z,84.25
2019-03-25T13:02:16.615Z,84.72
2019-03-25T13:03:16.606Z,85.87
2019-03-25T13:04:16.595Z,86.35
2019-03-25T13:05:16.589Z,86.02
2019-03-25T13:06:16.582Z,86.02
2019-03-25T13:07:16.572Z,85.64
2019-03-25T13:08:16.566Z,86.02
2019-03-25T13:09:16.555Z,85.54
2019-03-25T13:10:16.547Z,87.12
2019-03-25T13:11:16.537Z,87.98
2019-03-25T13:12:16.530Z,89.22
2019-03-25T13:13:16.526Z,88.64
2019-03-25T13:14:16.511Z,89.31
2019-03-25T13:15:16.505Z,89.69
2019-03-25T13:16:16.496Z,88.74
2019-03-25T13:17:16.252Z,88.45
2019-03-25T13:18:16.478Z,87.79
2019-03-25T13:19:16.469Z,88.26
2019-03-25T13:20:16.462Z,88.89
2019-03-25T13:21:16.456Z,89.46
2019-03-25T13:22:16.444Z,88.89